Parma Airport

LIMP · Emilia-Romagna, 意大利

METAR的历史 LIMP · Parma Airport

下面你可以看到过去几天的METARs。 选择年份以浏览从2007年开始的旧METAR。

2024年4月12日

时间 代码 天气 温度 能见度 天花板 METAR/SPECI
22:50
V
15 °C 10 km+ - 220° 220° 1 kt METAR LIMP 122050Z 22001KT CAVOK 15/13 Q1027
21:50
V
16 °C 10 km+ - 210° 210° 1 kt METAR LIMP 121950Z 21001KT CAVOK 16/13 Q1027
20:50
V
19 °C 10 km+ - 070° 070° 2 kt METAR LIMP 121850Z 07002KT CAVOK 19/14 Q1026
19:50
V
22 °C 10 km+ - 080° 080° 3 kt METAR LIMP 121750Z 08003KT CAVOK 22/13 Q1026
18:50
V
23 °C 10 km+ - 060° 060° 4 kt METAR LIMP 121650Z 06004KT CAVOK 23/14 Q1026
17:50
V
24 °C 10 km+ - Var Var 3 kt METAR LIMP 121550Z VRB03KT CAVOK 24/13 Q1027
16:50
V
25 °C 10 km+ - 020° 020° 3 kt METAR LIMP 121450Z 02003KT 330V070 CAVOK 25/14 Q1027
15:50
V
25 °C 10 km+ - Var Var 2 kt METAR LIMP 121350Z VRB02KT CAVOK 25/12 Q1028
14:50
V
24 °C 10 km+ - 050° 050° 4 kt METAR LIMP 121250Z 05004KT 020V090 CAVOK 24/13 Q1029
13:50
V
23 °C 10 km+ - 020° 020° 3 kt METAR LIMP 121150Z 02003KT 330V100 CAVOK 23/13 Q1029
12:50
V
22 °C 10 km+ - Var Var 2 kt METAR LIMP 121050Z VRB02KT CAVOK 22/14 Q1030
11:50
V
21 °C 10 km+ - 340° 340° 3 kt METAR LIMP 120950Z 34003KT 290V050 CAVOK 21/13 Q1030
10:50
V
19 °C 10 km+ - 310° 310° 3 kt METAR LIMP 120850Z 31003KT 260V340 CAVOK 19/14 Q1030
09:50
V
17 °C 10 km+ - 270° 270° 3 kt METAR LIMP 120750Z 27003KT 240V300 CAVOK 17/11 Q1030
08:50
V
14 °C 10 km+ - 230° 230° 5 kt METAR LIMP 120650Z 23005KT CAVOK 14/11 Q1030
07:50
V
11 °C 10 km+ - 310° 310° 3 kt METAR LIMP 120550Z 31003KT CAVOK 11/09 Q1030
06:56
V
11 °C 10 km+ - 220° 220° 4 kt METAR LIMP 120456Z 22004KT CAVOK 11/09 Q1029

2024年4月11日

时间 代码 天气 温度 能见度 天花板 METAR/SPECI
22:50
V
13 °C 10 km+ - 290° 290° 4 kt METAR LIMP 112050Z 29004KT CAVOK 13/12 Q1029
21:50
V
15 °C 10 km+ - 120° 120° 3 kt METAR LIMP 111950Z 12003KT CAVOK 15/12 Q1028
20:50
V
16 °C 10 km+ - Var Var 1 kt METAR LIMP 111850Z VRB01KT CAVOK 16/12 Q1028
19:50
V
20 °C 10 km+ - 340° 340° 2 kt METAR LIMP 111750Z 34002KT CAVOK 20/12 Q1027
18:50
V
20 °C 10 km+ - 350° 350° 3 kt METAR LIMP 111650Z 35003KT 330V030 CAVOK 20/11 Q1027
17:50
V
21 °C 10 km+ - 030° 030° 3 kt METAR LIMP 111550Z 03003KT 340V100 CAVOK 21/10 Q1027
16:50
V
21 °C 10 km+ - Var Var 2 kt METAR LIMP 111450Z VRB02KT CAVOK 21/11 Q1028
15:50
V
21 °C 10 km+ - 270° 270° 3 kt METAR LIMP 111350Z 27003KT 230V340 CAVOK 21/11 Q1028
14:50
V
20 °C 10 km+ - 080° 080° 3 kt METAR LIMP 111250Z 08003KT 340V150 CAVOK 20/10 Q1028
13:50
V
20 °C 10 km+ - Var Var 2 kt METAR LIMP 111150Z VRB02KT CAVOK 20/11 Q1029
12:50
V
19 °C 10 km+ - Var Var 2 kt METAR LIMP 111050Z VRB02KT CAVOK 19/10 Q1029
11:50
V
18 °C 10 km+ - Var Var 2 kt METAR LIMP 110950Z VRB02KT CAVOK 18/11 Q1029
10:50
V
16 °C 10 km+ - 320° 320° 5 kt METAR LIMP 110850Z 32005KT CAVOK 16/10 Q1029
09:50
V
14 °C 10 km+ - Var Var 2 kt METAR LIMP 110750Z VRB02KT CAVOK 14/12 Q1029
08:50
M
12 °C 7 km - Var Var 1 kt METAR LIMP 110650Z VRB01KT 7000 NSC 12/11 Q1028
08:17
M
11 °C 5 km - Var Var 1 kt METAR LIMP 110617Z VRB01KT 5000 BR NSC 11/11 Q1028
07:50
I
9 °C 2 km - 300° 300° 2 kt METAR LIMP 110550Z 30002KT 2000 BR NSC 09/09 Q1027
06:53
L
8 °C 500 m - 240° 240° 3 kt METAR LIMP 110453Z 24003KT 0500 R20/0400N FG NSC 08/08 Q1027

2024年4月10日

时间 代码 天气 温度 能见度 天花板 METAR/SPECI
22:50
M
11 °C 6 km 1.000 ft 260° 260° 5 kt METAR LIMP 102050Z 26005KT 6000 RA BKN010 11/11 Q1024
21:50
M
11 °C 7 km 1.500 ft 270° 270° 7 kt METAR LIMP 101950Z 27007KT 7000 -RA BKN015 11/11 Q1023
20:50
M
12 °C 10 km+ 1.500 ft 250° 250° 7 kt METAR LIMP 101850Z 25007KT 9999 BKN015 12/11 Q1022
19:50
M
12 °C 10 km+ 1.500 ft 260° 260° 6 kt METAR LIMP 101750Z 26006KT 9999 BKN015 12/11 Q1021 RESHRA
19:16
M
12 °C 5 km 1.500 ft 280° 280° 7 kt METAR LIMP 101716Z 28007KT 5000 SHRA BKN015 12/11 Q1021
18:50
M
12 °C 10 km+ 1.500 ft 280° 280° 8 kt METAR LIMP 101650Z 28008KT 9999 BKN015 12/10 Q1020
17:50
M
12 °C 10 km+ 1.500 ft 290° 290° 7 kt METAR LIMP 101550Z 29007KT 9999 BKN015 12/10 Q1020
16:50
M
12 °C 10 km+ 2.000 ft 290° 290° 9 kt METAR LIMP 101450Z 29009KT 9999 BKN020 12/10 Q1019
15:50
M
13 °C 10 km+ 1.500 ft 300° 300° 10 kt METAR LIMP 101350Z 30010KT 9999 BKN015 13/10 Q1018
14:50
V
13 °C 10 km+ 4.000 ft 280° 280° 10 kt METAR LIMP 101250Z 28010KT 9999 FEW010 BKN040 13/10 Q1018
13:50
V
13 °C 10 km+ 4.000 ft 280° 280° 13 kt METAR LIMP 101150Z 28013KT 9999 FEW010 BKN040 13/10 Q1018
12:50
V
12 °C 10 km+ 4.000 ft 280° 280° 14 kt METAR LIMP 101050Z 28014KT 9999 SCT010 BKN040 12/10 Q1017
11:50
V
12 °C 10 km+ 4.000 ft 280° 280° 14 kt METAR LIMP 100950Z 28014KT 9999 SCT015 BKN040 12/10 Q1017
10:50
M
11 °C 7 km 4.000 ft 270° 270° 13 kt METAR LIMP 100850Z 27013KT 7000 FEW015 BKN040 11/09 Q1017
09:50
M
11 °C 5 km 4.000 ft 290° 290° 15 kt METAR LIMP 100750Z 29015KT 5000 -RA BR FEW015 BKN040 11/09 Q1016 RERA
08:50
I
11 °C 4 km 1.500 ft 270° 270° 16 kt METAR LIMP 100650Z 27016KT 4000 RA BR BKN015 11/10 Q1015
07:50
I
11 °C 4 km 1.500 ft 270° 270° 11 kt METAR LIMP 100550Z 27011KT 4000 RA BR BKN015 11/10 Q1015
报告变更